58FL weather

A I M Heliport
Boca Raton, Florida, United States

Public forecast

Using degrees Fahrenheit for public forecast. Weather courtesy of forecast.io.

METAR (pilot weather report)

Closest report is Boca Raton Airport, 5.0 nm (9.3 km) ESE. Retrieved 2019/09/21 11:50 UTC (49 minutes ago):

KBCT 211150Z 08015KT 10SM SCT023 SCT029 27/23 A3007

TAF (pilot weather forecast)

Closest forecast is Fort Lauderdale Executive Airport, 13.2 nm (24.4 km) S. Retrieved 2019/09/21 12:39 UTC (0 seconds ago):

TAF KFXE 211137Z 2112/2212 07011G21KT P6SM VCSH SCT025 BKN035 TEMPO 2112/2115 4SM SHRA BKN025 FM211500 08018G28KT 6SM SHRA VCTS SCT025CB BKN050 FM220400 08015G25KT P6SM VCSH SCT025 BKN050